Address 0x502ac1f0c8dfbae0a35c42ac7ee3c3e45acb13a9 2

 
 
Txn Hash Method
Block
From
To
Value [Txn Fee]
0x18f14235ad936c94fbd21455e05c99fb6858f3edd21501c17892253cd8f79aefTransfer349218222022-10-28 22:48:0841 days 3 hrs ago0x502ac1f0c8dfbae0a35c42ac7ee3c3e45acb13a9OUT0x3b7843be295f5b0ee1ed0d24818c5e04d51d4b842.327459807200856 MATIC0.000630650001 30.030952453
0x0386e98882891154423070afd6c51f0dceff0bbf764dd2303aba40f35992a338Safe Transfer Fr...349217752022-10-28 22:46:3041 days 3 hrs ago0x502ac1f0c8dfbae0a35c42ac7ee3c3e45acb13a9OUT 0x885aaa5527d168716e1b7eb7b4a266b9093e96920 MATIC0.00074793246 30.045894864
0x1f9f177de1f53d71ed220094d545b04cbf19860c0547c1c3fa7cacac5a277b79Safe Transfer Fr...343994602022-10-16 2:46:2653 days 23 hrs ago0x502ac1f0c8dfbae0a35c42ac7ee3c3e45acb13a9OUT 0x885aaa5527d168716e1b7eb7b4a266b9093e96920 MATIC0.003322470739 53.434828074
0xc44d1cda0d08d9c2172b45e8cf9c0dc92b9a74bf34e690acb5d4124f22f2a8a7Safe Transfer Fr...343994602022-10-16 2:46:2653 days 23 hrs ago0x502ac1f0c8dfbae0a35c42ac7ee3c3e45acb13a9OUT 0xc29e9bb0b580074411fb6321cc97578289cf7d9f0 MATIC0.004929999549 50.918700997
0x240aa3d328b0cc84d9a13bf50c55900078b227da36c29bdbfdfc689b5ec5f495Safe Transfer Fr...343960422022-10-16 0:48:0754 days 1 hr ago0x502ac1f0c8dfbae0a35c42ac7ee3c3e45acb13a9OUT 0x11c93c89a0995038c83a92a0fefbf85a71dcc4840 MATIC0.004398607619 76.660176722
0xe9b308f669631427d06e4c8e189ae3657bce4e7f5ff774171bea47f9a78ee248Safe Transfer Fr...343960142022-10-16 0:47:0354 days 1 hr ago0x502ac1f0c8dfbae0a35c42ac7ee3c3e45acb13a9OUT 0x2a4324ca8f62d44504706ee573698796a457dcff0 MATIC0.004571196113 73.503716246
0x1984d0c660d2e67a482d8c54ac0e4acfd537709a97f0f4ca9906ea5bb65b8404Safe Transfer Fr...343958032022-10-16 0:39:4754 days 1 hr ago0x502ac1f0c8dfbae0a35c42ac7ee3c3e45acb13a9OUT 0xadb927ba189847d6ea69d8fea8330c18d8cfec230 MATIC0.003203093793 51.442099914
0xa2f66dcfa3828cb616e5976025b0c2239bfe8b9b041b51493c6d3523f75fa4f0Transfer343952712022-10-16 0:21:3054 days 1 hr ago0xd646863368103d42be24ee0f832d92f2dd0ad7dd IN 0x502ac1f0c8dfbae0a35c42ac7ee3c3e45acb13a92.349263757478889 MATIC0.00312444594148.783140007
0x99dff94273e795b468ede1d2b04e8f85e5dfe7209da2d5b5c25741671eef5e3cTransfer341474542022-10-10 0:33:0460 days 1 hr ago0x502ac1f0c8dfbae0a35c42ac7ee3c3e45acb13a9OUT0xaf9bcaf377dc3de9589803b8fb6cf45d4c4c68e81.386854256295698 MATIC0.00063 30.000000014
0xafe988483b32dfbb44fb1881ebf2952a82b157e29938965e5458f1b23b7729dfFulfill Basic Or...341471692022-10-10 0:23:1860 days 1 hr ago0x502ac1f0c8dfbae0a35c42ac7ee3c3e45acb13a9OUTSeaport 1.10.15 MATIC0.003948750002 30.000000021
0x29fc693f50e0e328c6394bd05ac130073a11b81c567f910080ad07301589cdc9Mint338863372022-10-03 17:05:5266 days 9 hrs ago0x502ac1f0c8dfbae0a35c42ac7ee3c3e45acb13a9OUT 0x2a4324ca8f62d44504706ee573698796a457dcff0.1 MATIC0.002864220001 30.000000016
0x71217ec149e4243ae78aac966f35376a8489fc09375f291248bfb5a021447e84Mint338863322022-10-03 17:05:3866 days 9 hrs ago0x502ac1f0c8dfbae0a35c42ac7ee3c3e45acb13a9OUT 0x2a4324ca8f62d44504706ee573698796a457dcff0.1 MATIC0.002864220001 30.000000016
0xf35d010b76eb758f462bdfdad477f79acf826a2e2d520c9afe75cca37185132dMint338863272022-10-03 17:05:2866 days 9 hrs ago0x502ac1f0c8dfbae0a35c42ac7ee3c3e45acb13a9OUT 0x2a4324ca8f62d44504706ee573698796a457dcff0.1 MATIC0.002864220001 30.000000017
0xb72786d53686b32b4816b7b0acb89d0158892709ed2a41444475ba1847479a32Mint338863212022-10-03 17:05:1666 days 9 hrs ago0x502ac1f0c8dfbae0a35c42ac7ee3c3e45acb13a9OUT 0x2a4324ca8f62d44504706ee573698796a457dcff0.1 MATIC0.002864220002 30.000000021
0x428b25f2a64f817a766bde4d929ad715ebeae9f9277d3b16519e1c30f99cf9c8Mint338863162022-10-03 17:05:0666 days 9 hrs ago0x502ac1f0c8dfbae0a35c42ac7ee3c3e45acb13a9OUT 0x2a4324ca8f62d44504706ee573698796a457dcff0.1 MATIC0.003890220002 30.000000022
0x6362c55b02b927731d6e4c7551190270004865b1eff8d760ad998614252004daTransfer338482202022-10-02 18:59:4567 days 7 hrs ago0xbb5e7ee71b707010db132647bcfdd478622ce83d IN 0x502ac1f0c8dfbae0a35c42ac7ee3c3e45acb13a91.917344703244105 MATIC0.00063 30.000000013
0xe2f8d8cd72629b6bd3759a3b4a6660d857678ca7fc0006bc1b0464a59b891a77Fulfill Basic Or...338468072022-10-02 18:11:1167 days 7 hrs ago0x502ac1f0c8dfbae0a35c42ac7ee3c3e45acb13a9OUTSeaport 1.11 MATIC0.003948750001 30.000000013
0xc6acd31f800bb4a53b51ce90b32a393c4bc4f8459c3f9e244806fc51b7e74357Mint338455712022-10-02 17:28:4367 days 8 hrs ago0x502ac1f0c8dfbae0a35c42ac7ee3c3e45acb13a9OUT 0xadb927ba189847d6ea69d8fea8330c18d8cfec230 MATIC0.002667232364 32.08469
0xe9e5e532a5a98de4ab09bafdb03e53e42ad43110a22d640121a60abfaabfe063Mint338455602022-10-02 17:28:1767 days 8 hrs ago0x502ac1f0c8dfbae0a35c42ac7ee3c3e45acb13a9OUT 0xadb927ba189847d6ea69d8fea8330c18d8cfec230 MATIC0.00249393 30.000000012
0x8d7f39b0ff93c0deb3855d638eb55870c0be23cdf23a2568877a851f7d34dc7dMint338455562022-10-02 17:28:0967 days 8 hrs ago0x502ac1f0c8dfbae0a35c42ac7ee3c3e45acb13a9OUT 0xadb927ba189847d6ea69d8fea8330c18d8cfec230 MATIC0.00249393 30.000000012
0x16b8adc5b4f37d2e2765d41090e9267b8057334fbd9ec91d416fdaa4dd606a41Mint338455502022-10-02 17:27:5767 days 8 hrs ago0x502ac1f0c8dfbae0a35c42ac7ee3c3e45acb13a9OUT 0xadb927ba189847d6ea69d8fea8330c18d8cfec230 MATIC0.003585048706 30.555000015
0x684c8123c285603cae3c8aca9d0f2e2aad5a147e05656e2999de2ac78938474dSafe Transfer Fr...338441622022-10-02 16:40:1767 days 9 hrs ago0x502ac1f0c8dfbae0a35c42ac7ee3c3e45acb13a9OUT 0xe1b698c516ff5c5cfbec557e36f60dfa5588c7520 MATIC0.00121115946 30.07
0xae584f972efb60b1704c1becd9b890f7bd1a61502f9a6c6de11984ecf9f97a31Safe Transfer Fr...338441422022-10-02 16:39:3367 days 9 hrs ago0x502ac1f0c8dfbae0a35c42ac7ee3c3e45acb13a9OUT 0xe1b698c516ff5c5cfbec557e36f60dfa5588c7520 MATIC0.001371665209 30.428706019
0x6a085ab2108e9c3235c5bc6c33e3ee25990bee0752700e94606ea73f26fdd0f8Safe Transfer Fr...338441292022-10-02 16:39:0767 days 9 hrs ago0x502ac1f0c8dfbae0a35c42ac7ee3c3e45acb13a9OUT 0xe1b698c516ff5c5cfbec557e36f60dfa5588c7520 MATIC0.00137735829 30.555000019
0xbe3abc8924d42f263e7f322417f1eeab2e9c0a4cf98db06075dcdd28db5267fdSafe Transfer Fr...338441132022-10-02 16:38:3567 days 9 hrs ago0x502ac1f0c8dfbae0a35c42ac7ee3c3e45acb13a9OUT 0xe1b698c516ff5c5cfbec557e36f60dfa5588c7520 MATIC0.00135234 30.000000017
[ Download CSV Export 
Parent Txn Hash Block From To Value
Loading

Contract Name:
0 MATIC

Compiler Version
0

Optimization Enabled:
0 MATIC

Other Settings:
-NA-
Block Transaction Gas Used Reward
Age Block Fee Address BC Fee Address Voting Power Jailed Incoming
Block Uncle Number Difficulty Gas Used Reward
Loading
Loading
Make sure to use the "Vote Down" button for any spammy posts, and the "Vote Up" for interesting conversations.